createdAt,value
2023-01-28T00:00:34.900Z,81.79
2023-01-28T00:03:01.649Z,81.90
2023-01-28T00:05:29.850Z,82.67
2023-01-28T00:07:57.878Z,82.99
2023-01-28T00:10:24.484Z,82.96
2023-01-28T00:12:50.956Z,82.94
2023-01-28T00:15:17.526Z,83.17
2023-01-28T00:17:43.956Z,83.26
2023-01-28T00:20:10.979Z,82.93
2023-01-28T00:22:37.427Z,82.99
2023-01-28T00:25:04.175Z,83.19
2023-01-28T00:27:31.051Z,82.57
2023-01-28T00:29:57.475Z,82.89
2023-01-28T00:32:23.914Z,82.53
2023-01-28T00:34:50.340Z,82.48
2023-01-28T00:37:16.879Z,82.64
2023-01-28T00:39:43.395Z,83.47
2023-01-28T00:42:09.873Z,83.38
2023-01-28T00:44:36.668Z,83.40
2023-01-28T00:47:03.578Z,83.56
2023-01-28T00:49:31.178Z,83.91
2023-01-28T00:51:57.616Z,83.82
2023-01-28T00:54:24.142Z,84.37
2023-01-28T00:56:50.585Z,84.07
2023-01-28T00:59:17.073Z,83.62
2023-01-28T01:01:44.266Z,83.71
2023-01-28T01:04:11.125Z,83.33
2023-01-28T01:06:40.631Z,84.11
2023-01-28T01:09:10.703Z,83.81
2023-01-28T01:11:37.485Z,83.94
2023-01-28T01:14:06.890Z,83.96
2023-01-28T01:16:35.341Z,84.13
2023-01-28T01:19:02.166Z,84.33
2023-01-28T01:21:30.150Z,84.22
2023-01-28T01:23:57.096Z,83.98
2023-01-28T01:26:23.989Z,83.98
2023-01-28T01:28:51.671Z,84.03
2023-01-28T01:31:21.077Z,84.71
2023-01-28T01:33:50.343Z,84.92
2023-01-28T01:36:19.582Z,84.32
2023-01-28T01:38:46.520Z,84.21
2023-01-28T01:41:31.095Z,84.83
2023-01-28T01:44:00.261Z,85.11
2023-01-28T01:46:39.927Z,84.66
2023-01-28T01:49:23.362Z,84.89
2023-01-28T01:51:55.603Z,83.98
2023-01-28T01:54:26.039Z,84.42
2023-01-28T01:56:53.389Z,84.46
2023-01-28T01:59:25.818Z,84.10
2023-01-28T02:01:53.894Z,84.35
2023-01-28T02:04:26.942Z,84.68
2023-01-28T02:06:53.419Z,84.53
2023-01-28T02:09:27.037Z,84.16
2023-01-28T02:12:01.161Z,83.48
2023-01-28T02:14:32.541Z,84.33
2023-01-28T02:17:01.481Z,83.72
2023-01-28T02:19:44.277Z,83.50
2023-01-28T02:22:10.747Z,83.58
2023-01-28T02:25:08.681Z,83.64
2023-01-28T02:27:50.706Z,83.61
2023-01-28T02:30:26.716Z,84.38
2023-01-28T02:32:57.552Z,83.55
2023-01-28T02:35:34.657Z,83.67
2023-01-28T02:38:08.062Z,83.73
2023-01-28T02:40:56.454Z,83.26
2023-01-28T02:43:40.192Z,82.99
2023-01-28T02:46:37.972Z,83.32
2023-01-28T02:49:09.697Z,83.16
2023-01-28T02:52:03.921Z,82.74
2023-01-28T02:54:44.797Z,82.91
2023-01-28T02:57:29.315Z,82.56
2023-01-28T03:00:12.583Z,82.46
2023-01-28T03:02:50.764Z,82.16
2023-01-28T03:05:30.631Z,82.55
2023-01-28T03:07:57.923Z,82.10
2023-01-28T03:10:28.286Z,82.62
2023-01-28T03:13:16.321Z,82.54
2023-01-28T03:16:07.621Z,82.56
2023-01-28T03:19:03.469Z,82.64
2023-01-28T03:21:53.144Z,82.52
2023-01-28T03:24:50.418Z,82.65
2023-01-28T03:27:43.946Z,82.97
2023-01-28T03:30:45.700Z,82.61
2023-01-28T03:33:31.085Z,82.62
2023-01-28T03:36:16.099Z,82.35
2023-01-28T03:38:43.620Z,82.54
2023-01-28T03:41:15.213Z,82.26
2023-01-28T03:43:42.689Z,82.40
2023-01-28T03:46:09.173Z,82.12
2023-01-28T03:48:35.574Z,82.46
2023-01-28T03:51:02.052Z,82.47
2023-01-28T03:53:28.716Z,82.61
2023-01-28T03:55:56.710Z,82.55
2023-01-28T03:58:40.308Z,81.22
2023-01-28T04:01:06.685Z,82.90
2023-01-28T04:03:33.137Z,81.57
2023-01-28T04:06:05.670Z,81.16
2023-01-28T04:08:32.084Z,80.73
2023-01-28T04:10:58.864Z,80.62
2023-01-28T04:13:25.330Z,81.18
2023-01-28T04:15:51.935Z,81.08
2023-01-28T04:18:19.570Z,80.84
2023-01-28T04:20:48.751Z,81.43
2023-01-28T04:23:15.109Z,81.39
2023-01-28T04:25:41.500Z,81.59
2023-01-28T04:28:07.911Z,80.60
2023-01-28T04:30:34.317Z,80.77
2023-01-28T04:33:00.711Z,80.90
2023-01-28T04:35:27.130Z,80.88
2023-01-28T04:37:53.497Z,80.93
2023-01-28T04:40:19.958Z,80.80
2023-01-28T04:42:53.742Z,80.84
2023-01-28T04:45:20.400Z,80.67
2023-01-28T04:47:46.879Z,80.13
2023-01-28T04:50:13.915Z,80.63
2023-01-28T04:52:40.332Z,80.84
2023-01-28T04:55:07.766Z,80.69
2023-01-28T04:57:34.283Z,80.82
2023-01-28T05:00:01.026Z,81.06
2023-01-28T05:02:27.646Z,80.90
2023-01-28T05:04:54.049Z,80.39
2023-01-28T05:07:20.610Z,80.44
2023-01-28T05:09:47.088Z,81.64
2023-01-28T05:12:13.517Z,81.13
2023-01-28T05:14:39.896Z,80.26
2023-01-28T05:17:06.476Z,81.19
2023-01-28T05:19:32.950Z,81.06
2023-01-28T05:21:59.340Z,81.56
2023-01-28T05:24:25.815Z,80.36
2023-01-28T05:26:52.290Z,80.29
2023-01-28T05:29:18.637Z,80.52
2023-01-28T05:31:45.083Z,80.39
2023-01-28T05:34:11.447Z,80.34
2023-01-28T05:36:38.035Z,80.62
2023-01-28T05:39:04.440Z,81.12
2023-01-28T05:41:30.854Z,81.24
2023-01-28T05:43:57.355Z,80.84
2023-01-28T05:46:25.145Z,80.40
2023-01-28T05:48:52.055Z,80.87
2023-01-28T05:51:18.503Z,80.36
2023-01-28T05:53:45.038Z,80.06
2023-01-28T05:56:11.413Z,80.27
2023-01-28T05:58:37.792Z,80.36
2023-01-28T06:01:04.454Z,80.00
2023-01-28T06:03:30.876Z,80.98
2023-01-28T06:05:57.292Z,81.00
2023-01-28T06:08:23.808Z,81.24
2023-01-28T06:10:50.181Z,80.40
2023-01-28T06:13:16.532Z,80.23
2023-01-28T06:15:42.961Z,80.09
2023-01-28T06:18:09.481Z,79.49
2023-01-28T06:20:36.000Z,80.19
2023-01-28T06:23:02.485Z,80.47
2023-01-28T06:25:28.956Z,80.36
2023-01-28T06:27:55.340Z,80.53
2023-01-28T06:30:21.821Z,79.97
2023-01-28T06:32:53.322Z,80.08
2023-01-28T06:35:19.785Z,80.27
2023-01-28T06:37:46.539Z,80.68
2023-01-28T06:40:13.707Z,80.56
2023-01-28T06:42:40.298Z,80.64
2023-01-28T06:45:07.307Z,80.73
2023-01-28T06:47:33.781Z,80.58
2023-01-28T06:50:00.304Z,79.83
2023-01-28T06:52:26.777Z,80.07
2023-01-28T06:54:53.218Z,79.91
2023-01-28T06:57:19.633Z,80.56
2023-01-28T06:59:46.465Z,80.21
2023-01-28T07:02:13.079Z,80.10
2023-01-28T07:04:39.534Z,79.46
2023-01-28T07:07:07.181Z,80.05
2023-01-28T07:09:33.721Z,79.89
2023-01-28T07:12:00.229Z,79.60
2023-01-28T07:14:26.849Z,79.44
2023-01-28T07:16:53.694Z,79.40
2023-01-28T07:19:20.206Z,78.96
2023-01-28T07:21:46.686Z,78.42
2023-01-28T07:24:13.272Z,78.59
2023-01-28T07:26:39.724Z,77.92
2023-01-28T07:29:06.167Z,77.89
2023-01-28T07:31:32.768Z,78.84
2023-01-28T07:33:59.321Z,78.88
2023-01-28T07:36:25.740Z,78.38
2023-01-28T07:38:52.164Z,77.98
2023-01-28T07:41:18.814Z,78.37
2023-01-28T07:43:45.612Z,78.13
2023-01-28T07:46:12.015Z,78.06
2023-01-28T07:48:38.537Z,78.60
2023-01-28T07:51:05.486Z,78.00
2023-01-28T07:53:32.035Z,77.19
2023-01-28T07:56:00.828Z,76.93
2023-01-28T07:58:27.487Z,77.17
2023-01-28T08:00:58.363Z,76.65
2023-01-28T08:03:25.379Z,77.11
2023-01-28T08:05:53.605Z,77.80
2023-01-28T08:08:20.163Z,77.35
2023-01-28T08:10:46.916Z,76.82
2023-01-28T08:13:14.732Z,75.97
2023-01-28T08:15:41.763Z,75.69
2023-01-28T08:18:10.412Z,75.98
2023-01-28T08:20:36.912Z,75.73
2023-01-28T08:23:07.282Z,75.87
2023-01-28T08:25:34.309Z,75.45
2023-01-28T08:28:01.013Z,74.86
2023-01-28T08:30:27.435Z,74.55
2023-01-28T08:32:58.071Z,74.96
2023-01-28T08:35:28.271Z,74.81
2023-01-28T08:37:54.992Z,75.39
2023-01-28T08:40:22.079Z,75.15
2023-01-28T08:42:50.087Z,75.27
2023-01-28T08:45:17.426Z,74.94
2023-01-28T08:47:55.753Z,74.40
2023-01-28T08:50:23.910Z,74.76
2023-01-28T08:52:56.218Z,73.92
2023-01-28T08:55:22.912Z,74.36
2023-01-28T08:57:49.364Z,73.74
2023-01-28T09:00:16.304Z,73.52
2023-01-28T09:02:42.911Z,73.00
2023-01-28T09:05:10.626Z,72.13
2023-01-28T09:07:38.475Z,72.64
2023-01-28T09:10:06.124Z,72.54
2023-01-28T09:12:33.141Z,72.97
2023-01-28T09:14:59.653Z,72.15
2023-01-28T09:17:26.092Z,72.18
2023-01-28T09:19:52.623Z,72.06
2023-01-28T09:22:19.290Z,72.70
2023-01-28T09:24:45.786Z,72.32
2023-01-28T09:27:12.543Z,72.89
2023-01-28T09:29:39.021Z,72.92
2023-01-28T09:32:09.458Z,73.37
2023-01-28T09:34:36.172Z,72.90
2023-01-28T09:37:02.678Z,72.82
2023-01-28T09:39:29.205Z,73.08
2023-01-28T09:42:18.973Z,72.49
2023-01-28T09:44:54.178Z,72.60
2023-01-28T09:47:39.984Z,72.81
2023-01-28T09:50:12.231Z,72.91
2023-01-28T09:52:41.198Z,72.44
2023-01-28T09:55:22.734Z,72.65
2023-01-28T09:57:54.786Z,72.35
2023-01-28T10:00:24.607Z,73.25
2023-01-28T10:02:58.907Z,72.54
2023-01-28T10:05:44.676Z,72.86
2023-01-28T10:08:36.707Z,72.52
2023-01-28T10:11:07.536Z,71.15
2023-01-28T10:14:03.689Z,71.02
2023-01-28T10:16:41.911Z,71.98
2023-01-28T10:19:21.066Z,71.83
2023-01-28T10:21:52.386Z,70.99
2023-01-28T10:24:31.614Z,72.23
2023-01-28T10:26:58.452Z,72.00
2023-01-28T10:29:33.677Z,71.17
2023-01-28T10:32:06.200Z,70.99
2023-01-28T10:34:32.724Z,70.54
2023-01-28T10:36:59.308Z,70.35
2023-01-28T10:39:26.777Z,70.25
2023-01-28T10:41:58.137Z,70.97
2023-01-28T10:44:42.339Z,69.23
2023-01-28T10:47:17.027Z,70.71
2023-01-28T10:49:53.495Z,70.07
2023-01-28T10:52:19.926Z,69.89
2023-01-28T10:54:46.650Z,68.63
2023-01-28T10:57:17.522Z,68.26
2023-01-28T10:59:44.416Z,68.38
2023-01-28T11:02:37.268Z,68.30
2023-01-28T11:05:18.217Z,68.50
2023-01-28T11:07:44.862Z,69.43
2023-01-28T11:10:26.556Z,67.85
2023-01-28T11:12:57.679Z,68.17
2023-01-28T11:15:24.219Z,67.52
2023-01-28T11:18:06.302Z,67.93
2023-01-28T11:20:40.751Z,68.16
2023-01-28T11:23:07.207Z,67.81
2023-01-28T11:25:35.631Z,68.94
2023-01-28T11:28:15.652Z,68.02
2023-01-28T11:30:42.544Z,67.73
2023-01-28T11:33:33.559Z,67.91
2023-01-28T11:36:08.266Z,65.27
2023-01-28T11:38:35.147Z,65.71
2023-01-28T11:41:01.731Z,67.13
2023-01-28T11:43:30.844Z,66.21
2023-01-28T11:46:05.043Z,66.93
2023-01-28T11:48:37.693Z,66.30
2023-01-28T11:51:19.201Z,65.39
2023-01-28T11:54:09.882Z,65.05
2023-01-28T11:57:02.636Z,63.90
2023-01-28T11:59:46.310Z,64.83
2023-01-28T12:02:12.666Z,64.66
2023-01-28T12:04:49.373Z,65.68
2023-01-28T12:07:38.923Z,64.29
2023-01-28T12:10:17.519Z,65.07
2023-01-28T12:12:59.352Z,64.68
2023-01-28T12:16:04.983Z,64.76
2023-01-28T12:18:54.494Z,63.73
2023-01-28T12:21:23.722Z,64.16
2023-01-28T12:24:00.124Z,62.16
2023-01-28T12:26:48.596Z,61.18
2023-01-28T12:29:20.904Z,61.22
2023-01-28T12:31:50.466Z,61.75
2023-01-28T12:34:46.110Z,62.39
2023-01-28T12:37:25.527Z,62.36
2023-01-28T12:40:07.128Z,61.81
2023-01-28T12:42:51.024Z,63.18
2023-01-28T12:45:25.136Z,63.59
2023-01-28T12:48:00.118Z,63.44
2023-01-28T12:50:33.453Z,62.58
2023-01-28T12:53:23.205Z,63.25
2023-01-28T12:56:15.700Z,63.35
2023-01-28T12:58:54.254Z,64.43
2023-01-28T13:01:47.436Z,63.84
2023-01-28T13:04:25.436Z,65.03
2023-01-28T13:07:00.015Z,64.49
2023-01-28T13:09:27.955Z,65.04
2023-01-28T13:11:58.619Z,64.17
2023-01-28T13:14:30.433Z,64.93
2023-01-28T13:16:57.134Z,65.15
2023-01-28T13:19:36.920Z,65.73
2023-01-28T13:22:36.769Z,65.15
2023-01-28T13:25:28.076Z,64.39
2023-01-28T13:28:00.121Z,64.63
2023-01-28T13:30:32.864Z,64.50
2023-01-28T13:33:06.894Z,63.86
2023-01-28T13:35:37.753Z,64.19
2023-01-28T13:38:17.975Z,63.72
2023-01-28T13:40:53.504Z,63.59
2023-01-28T13:43:41.444Z,64.52
2023-01-28T13:46:26.212Z,62.52
2023-01-28T13:48:55.908Z,63.23
2023-01-28T13:51:34.297Z,63.37
2023-01-28T13:54:21.646Z,63.14
2023-01-28T13:57:00.298Z,63.16
2023-01-28T13:59:58.856Z,63.99
2023-01-28T14:02:28.286Z,64.64
2023-01-28T14:05:20.353Z,63.68
2023-01-28T14:08:05.699Z,63.44
2023-01-28T14:10:51.429Z,63.53
2023-01-28T14:13:25.404Z,63.97
2023-01-28T14:15:54.674Z,63.24
2023-01-28T14:18:40.791Z,62.95
2023-01-28T14:21:13.799Z,62.83
2023-01-28T14:23:49.471Z,64.03
2023-01-28T14:26:43.883Z,63.64
2023-01-28T14:29:20.632Z,62.86
2023-01-28T14:31:47.782Z,62.74
2023-01-28T14:34:17.267Z,62.41
2023-01-28T14:36:45.970Z,62.38
2023-01-28T14:39:21.418Z,62.49
2023-01-28T14:41:50.856Z,63.15
2023-01-28T14:44:44.203Z,61.89
2023-01-28T14:47:25.940Z,60.99
2023-01-28T14:50:07.537Z,61.40
2023-01-28T14:52:51.535Z,61.42
2023-01-28T14:55:46.104Z,61.24
2023-01-28T14:58:20.224Z,62.00
2023-01-28T15:00:59.180Z,62.70
2023-01-28T15:03:27.367Z,62.58
2023-01-28T15:06:16.403Z,63.83
2023-01-28T15:08:43.056Z,62.65
2023-01-28T15:11:14.203Z,63.00
2023-01-28T15:13:45.023Z,62.24
2023-01-28T15:16:23.742Z,63.07
2023-01-28T15:18:50.975Z,62.28
2023-01-28T15:21:22.390Z,62.71
2023-01-28T15:23:53.544Z,63.34
2023-01-28T15:26:23.443Z,63.93
2023-01-28T15:28:51.626Z,63.98
2023-01-28T15:31:23.719Z,63.97
2023-01-28T15:34:18.627Z,64.60
2023-01-28T15:36:47.605Z,65.14
2023-01-28T15:39:22.223Z,65.44
2023-01-28T15:42:02.742Z,65.14
2023-01-28T15:44:44.002Z,65.36
2023-01-28T15:47:23.261Z,66.19
2023-01-28T15:49:52.925Z,67.84
2023-01-28T15:52:21.111Z,68.53
2023-01-28T15:54:51.340Z,67.96
2023-01-28T15:57:22.025Z,67.63
2023-01-28T15:59:51.157Z,68.12
2023-01-28T16:02:22.258Z,68.67
2023-01-28T16:05:05.201Z,69.17
2023-01-28T16:07:33.806Z,68.36
2023-01-28T16:10:03.359Z,68.58
2023-01-28T16:12:29.948Z,68.96
2023-01-28T16:15:01.058Z,69.60
2023-01-28T16:17:42.198Z,70.38
2023-01-28T16:20:29.918Z,70.43
2023-01-28T16:23:02.318Z,71.00
2023-01-28T16:25:34.748Z,71.55
2023-01-28T16:28:02.586Z,71.90
2023-01-28T16:30:29.781Z,72.53
2023-01-28T16:32:56.517Z,73.48
2023-01-28T16:35:47.206Z,73.90
2023-01-28T16:38:19.293Z,73.57
2023-01-28T16:40:47.222Z,73.45
2023-01-28T16:43:15.508Z,73.84
2023-01-28T16:45:42.692Z,72.79
2023-01-28T16:48:09.273Z,73.70
2023-01-28T16:50:40.086Z,72.67
2023-01-28T16:53:17.600Z,73.04
2023-01-28T16:55:44.185Z,72.36
2023-01-28T16:58:10.962Z,72.93
2023-01-28T17:00:37.444Z,73.34
2023-01-28T17:03:04.019Z,72.82
2023-01-28T17:05:30.691Z,73.27
2023-01-28T17:07:59.237Z,74.04
2023-01-28T17:10:25.932Z,74.26
2023-01-28T17:12:52.461Z,74.05
2023-01-28T17:15:19.434Z,73.79
2023-01-28T17:17:50.580Z,74.01
2023-01-28T17:20:17.390Z,73.39
2023-01-28T17:22:44.209Z,73.46
2023-01-28T17:25:11.265Z,73.87
2023-01-28T17:27:37.731Z,74.18
2023-01-28T17:30:05.425Z,73.93
2023-01-28T17:32:31.959Z,72.54
2023-01-28T17:34:58.444Z,73.26
2023-01-28T17:37:25.033Z,73.90
2023-01-28T17:39:51.670Z,73.98
2023-01-28T17:42:18.159Z,74.66
2023-01-28T17:44:44.764Z,76.10
2023-01-28T17:47:11.672Z,76.73
2023-01-28T17:49:38.131Z,76.16
2023-01-28T17:52:04.918Z,78.61
2023-01-28T17:54:31.712Z,78.30
2023-01-28T17:56:58.407Z,78.83
2023-01-28T17:59:25.866Z,80.62
2023-01-28T18:01:54.537Z,80.38
2023-01-28T18:04:21.051Z,77.97
2023-01-28T18:06:49.154Z,78.17
2023-01-28T18:09:15.646Z,76.35
2023-01-28T18:11:42.204Z,75.95
2023-01-28T18:14:08.724Z,77.25
2023-01-28T18:16:35.154Z,77.29
2023-01-28T18:19:01.647Z,76.10
2023-01-28T18:21:53.869Z,76.87
2023-01-28T18:24:23.751Z,76.03
2023-01-28T18:26:51.762Z,74.15
2023-01-28T18:29:20.920Z,73.14
2023-01-28T18:31:48.303Z,73.46
2023-01-28T18:34:14.959Z,72.72
2023-01-28T18:36:41.919Z,71.54
2023-01-28T18:39:12.497Z,70.99
2023-01-28T18:41:39.622Z,71.31
2023-01-28T18:44:07.698Z,70.47
2023-01-28T18:46:34.228Z,70.89
2023-01-28T18:49:00.832Z,71.26
2023-01-28T18:51:30.537Z,72.63
2023-01-28T18:54:02.749Z,72.38
2023-01-28T18:56:30.823Z,73.51
2023-01-28T18:58:58.967Z,72.87
2023-01-28T19:01:26.022Z,73.48
2023-01-28T19:03:54.534Z,73.96
2023-01-28T19:06:21.106Z,71.57
2023-01-28T19:08:55.485Z,70.52
2023-01-28T19:11:26.847Z,69.87
2023-01-28T19:13:53.415Z,71.09
2023-01-28T19:16:21.714Z,71.89
2023-01-28T19:18:56.232Z,71.95
2023-01-28T19:21:24.885Z,70.29
2023-01-28T19:24:00.718Z,69.88
2023-01-28T19:26:29.728Z,69.99
2023-01-28T19:28:56.253Z,69.84
2023-01-28T19:31:24.146Z,70.83
2023-01-28T19:33:58.632Z,71.09
2023-01-28T19:36:27.870Z,71.00
2023-01-28T19:38:59.522Z,71.23
2023-01-28T19:41:28.045Z,69.54
2023-01-28T19:43:55.843Z,69.54
2023-01-28T19:46:22.390Z,70.55
2023-01-28T19:48:49.044Z,69.92
2023-01-28T19:51:16.614Z,68.87
2023-01-28T19:53:44.304Z,69.76
2023-01-28T19:56:14.000Z,70.13
2023-01-28T19:58:42.930Z,69.84
2023-01-28T20:01:14.988Z,68.91
2023-01-28T20:03:42.312Z,68.75
2023-01-28T20:06:13.616Z,68.75
2023-01-28T20:08:40.357Z,69.33
2023-01-28T20:11:13.139Z,68.42
2023-01-28T20:13:41.751Z,68.18
2023-01-28T20:16:13.324Z,68.08
2023-01-28T20:18:39.898Z,68.85
2023-01-28T20:21:06.534Z,68.51
2023-01-28T20:23:33.247Z,68.80
2023-01-28T20:26:03.405Z,68.50
2023-01-28T20:28:29.964Z,68.77
2023-01-28T20:30:57.696Z,69.47
2023-01-28T20:33:24.414Z,69.38
2023-01-28T20:35:51.021Z,68.60
2023-01-28T20:38:17.534Z,69.25
2023-01-28T20:40:44.099Z,69.66
2023-01-28T20:43:10.851Z,69.68
2023-01-28T20:45:37.324Z,69.34
2023-01-28T20:48:04.107Z,68.20
2023-01-28T20:50:30.651Z,68.12
2023-01-28T20:52:57.227Z,68.98
2023-01-28T20:55:23.746Z,69.23
2023-01-28T20:57:52.167Z,74.32
2023-01-28T21:00:19.157Z,72.92
2023-01-28T21:02:45.996Z,75.76
2023-01-28T21:05:13.398Z,73.21
2023-01-28T21:07:40.369Z,73.53
2023-01-28T21:10:07.265Z,68.79
2023-01-28T21:12:34.653Z,68.14
2023-01-28T21:15:01.166Z,67.19
2023-01-28T21:17:27.665Z,67.22
2023-01-28T21:19:54.117Z,67.74
2023-01-28T21:22:20.519Z,67.34
2023-01-28T21:24:48.915Z,68.15
2023-01-28T21:27:15.568Z,68.07
2023-01-28T21:29:42.274Z,68.68
2023-01-28T21:32:08.795Z,71.05
2023-01-28T21:34:38.133Z,68.37
2023-01-28T21:37:04.551Z,68.24
2023-01-28T21:39:31.045Z,68.99
2023-01-28T21:41:57.482Z,69.01
2023-01-28T21:44:23.908Z,68.68
2023-01-28T21:46:50.349Z,68.46
2023-01-28T21:49:16.716Z,68.32
2023-01-28T21:51:46.270Z,68.69
2023-01-28T21:54:18.093Z,68.84
2023-01-28T21:56:45.786Z,69.10
2023-01-28T21:59:29.332Z,68.87
2023-01-28T22:01:58.057Z,69.03
2023-01-28T22:04:26.976Z,69.39
2023-01-28T22:06:54.568Z,69.29
2023-01-28T22:09:21.518Z,69.74
2023-01-28T22:11:47.967Z,69.26
2023-01-28T22:14:14.945Z,69.06
2023-01-28T22:16:42.076Z,68.99
2023-01-28T22:19:09.555Z,69.70
2023-01-28T22:21:40.928Z,69.61
2023-01-28T22:24:13.490Z,69.45
2023-01-28T22:26:41.327Z,69.08
2023-01-28T22:29:09.320Z,68.91
2023-01-28T22:31:36.365Z,68.81
2023-01-28T22:34:03.112Z,68.17
2023-01-28T22:36:30.094Z,67.53
2023-01-28T22:38:56.608Z,68.55
2023-01-28T22:41:23.202Z,68.86
2023-01-28T22:43:50.899Z,69.12
2023-01-28T22:46:19.248Z,69.23
2023-01-28T22:48:46.259Z,69.61
2023-01-28T22:51:18.841Z,68.41
2023-01-28T22:53:46.897Z,69.22
2023-01-28T22:56:14.646Z,69.60
2023-01-28T22:58:41.194Z,69.82
2023-01-28T23:01:07.651Z,70.16
2023-01-28T23:03:34.671Z,69.27
2023-01-28T23:06:03.098Z,69.91
2023-01-28T23:08:30.541Z,69.43
2023-01-28T23:11:00.324Z,69.67
2023-01-28T23:13:27.862Z,69.41
2023-01-28T23:16:12.703Z,70.26
2023-01-28T23:18:41.689Z,69.72
2023-01-28T23:21:44.221Z,70.27
2023-01-28T23:24:20.710Z,69.55
2023-01-28T23:26:57.698Z,69.29
2023-01-28T23:29:27.138Z,69.74
2023-01-28T23:32:01.102Z,70.08
2023-01-28T23:34:31.710Z,70.07
2023-01-28T23:36:58.534Z,70.56
2023-01-28T23:39:25.029Z,71.08
2023-01-28T23:41:51.602Z,70.96
2023-01-28T23:44:21.951Z,71.11
2023-01-28T23:46:48.469Z,70.91
2023-01-28T23:49:15.027Z,70.46
2023-01-28T23:51:42.078Z,70.30
2023-01-28T23:54:08.611Z,70.15
2023-01-28T23:56:35.909Z,69.66
2023-01-28T23:59:05.130Z,70.71
